createdAt,value
2023-03-18T00:01:36.385Z,4.90
2023-03-18T00:04:05.700Z,5.00
2023-03-18T00:06:34.434Z,4.90
2023-03-18T00:09:04.998Z,4.90
2023-03-18T00:11:33.708Z,4.80
2023-03-18T00:14:02.382Z,4.80
2023-03-18T00:16:31.143Z,4.70
2023-03-18T00:18:59.834Z,4.70
2023-03-18T00:21:28.584Z,4.70
2023-03-18T00:23:58.878Z,4.70
2023-03-18T00:26:30.059Z,4.70
2023-03-18T00:28:59.985Z,4.60
2023-03-18T00:31:30.085Z,4.60
2023-03-18T00:33:59.147Z,4.60
2023-03-18T00:36:27.896Z,4.60
2023-03-18T00:38:58.082Z,4.60
2023-03-18T00:41:29.276Z,4.60
2023-03-18T00:43:58.871Z,4.60
2023-03-18T00:46:30.035Z,4.60
2023-03-18T00:49:00.701Z,4.60
2023-03-18T00:51:31.700Z,4.60
2023-03-18T00:54:02.414Z,4.60
2023-03-18T00:56:33.401Z,4.70
2023-03-18T00:59:02.526Z,4.70
2023-03-18T01:01:31.674Z,4.60
2023-03-18T01:04:00.995Z,4.70
2023-03-18T01:06:32.696Z,4.60
2023-03-18T01:09:02.828Z,4.40
2023-03-18T01:11:33.497Z,4.50
2023-03-18T01:14:03.766Z,4.40
2023-03-18T01:16:32.618Z,4.30
2023-03-18T01:19:01.355Z,4.30
2023-03-18T01:21:30.176Z,4.20
2023-03-18T01:24:00.652Z,4.10
2023-03-18T01:26:29.674Z,4.10
2023-03-18T01:28:59.975Z,4.10
2023-03-18T01:31:28.837Z,4.10
2023-03-18T01:33:57.559Z,4.10
2023-03-18T01:36:26.301Z,4.10
2023-03-18T01:38:55.129Z,4.00
2023-03-18T01:41:23.875Z,3.90
2023-03-18T01:43:53.649Z,3.90
2023-03-18T01:46:36.699Z,3.90
2023-03-18T01:49:10.468Z,3.90
2023-03-18T01:51:40.984Z,3.90
2023-03-18T01:54:11.126Z,3.90
2023-03-18T01:56:44.703Z,3.80
2023-03-18T01:59:14.283Z,3.80
2023-03-18T02:01:51.681Z,3.80
2023-03-18T02:04:22.586Z,3.70
2023-03-18T02:06:51.320Z,3.70
2023-03-18T02:09:20.284Z,3.70
2023-03-18T02:11:51.006Z,3.80
2023-03-18T02:14:23.932Z,3.80
2023-03-18T02:17:01.224Z,3.90
2023-03-18T02:19:55.987Z,3.90
2023-03-18T02:22:31.252Z,4.00
2023-03-18T02:25:14.552Z,4.00
2023-03-18T02:27:48.767Z,4.00
2023-03-18T02:30:22.648Z,4.00
2023-03-18T02:32:53.116Z,4.10
2023-03-18T02:35:22.129Z,4.10
2023-03-18T02:37:50.973Z,4.10
2023-03-18T02:40:22.259Z,4.10
2023-03-18T02:42:52.686Z,4.10
2023-03-18T02:45:40.993Z,4.10
2023-03-18T02:48:13.088Z,4.10
2023-03-18T02:50:42.490Z,4.10
2023-03-18T02:53:13.779Z,4.20
2023-03-18T02:55:42.836Z,4.20
2023-03-18T02:58:13.189Z,4.20
2023-03-18T03:00:42.140Z,4.20
2023-03-18T03:03:11.157Z,4.30
2023-03-18T03:05:39.971Z,4.30
2023-03-18T03:08:08.898Z,4.20
2023-03-18T03:10:37.924Z,4.20
2023-03-18T03:13:07.671Z,4.30
2023-03-18T03:15:37.922Z,4.30
2023-03-18T03:18:07.149Z,4.30
2023-03-18T03:20:37.595Z,4.30
2023-03-18T03:23:06.616Z,4.30
2023-03-18T03:25:35.642Z,4.30
2023-03-18T03:28:05.242Z,4.30
2023-03-18T03:30:34.815Z,4.30
2023-03-18T03:33:05.388Z,4.40
2023-03-18T03:35:34.548Z,4.40
2023-03-18T03:38:03.445Z,4.40
2023-03-18T03:40:32.723Z,4.40
2023-03-18T03:43:01.792Z,4.40
2023-03-18T03:45:30.624Z,4.30
2023-03-18T03:47:59.365Z,4.30
2023-03-18T03:50:29.741Z,4.40
2023-03-18T03:52:58.689Z,4.40
2023-03-18T03:55:27.627Z,4.40
2023-03-18T03:57:56.739Z,4.50
2023-03-18T04:00:26.350Z,4.50
2023-03-18T04:02:56.494Z,4.50
2023-03-18T04:05:26.745Z,4.50
2023-03-18T04:08:00.115Z,4.60
2023-03-18T04:10:29.700Z,4.60
2023-03-18T04:12:59.036Z,4.60
2023-03-18T04:15:27.936Z,4.70
2023-03-18T04:17:56.661Z,4.70
2023-03-18T04:20:25.501Z,4.70
2023-03-18T04:22:54.224Z,4.80
2023-03-18T04:25:24.409Z,4.80
2023-03-18T04:27:53.999Z,4.80
2023-03-18T04:30:23.620Z,4.80
2023-03-18T04:32:52.493Z,4.80
2023-03-18T04:35:21.656Z,4.80
2023-03-18T04:37:50.478Z,4.80
2023-03-18T04:40:20.231Z,4.70
2023-03-18T04:42:50.402Z,4.70
2023-03-18T04:45:20.251Z,4.80
2023-03-18T04:47:49.679Z,4.70
2023-03-18T04:50:19.333Z,4.70
2023-03-18T04:52:48.627Z,4.70
2023-03-18T04:55:20.713Z,4.70
2023-03-18T04:57:51.349Z,4.70
2023-03-18T05:00:22.728Z,4.80
2023-03-18T05:02:51.716Z,4.70
2023-03-18T05:05:21.440Z,4.80
2023-03-18T05:07:50.140Z,4.80
2023-03-18T05:10:19.416Z,4.80
2023-03-18T05:12:48.869Z,4.90
2023-03-18T05:15:19.668Z,4.90
2023-03-18T05:17:48.416Z,4.90
2023-03-18T05:20:17.157Z,5.00
2023-03-18T05:22:45.932Z,5.00
2023-03-18T05:25:14.702Z,5.10
2023-03-18T05:27:43.544Z,5.10
2023-03-18T05:30:13.694Z,5.20
2023-03-18T05:32:44.439Z,5.20
2023-03-18T05:35:13.290Z,5.30
2023-03-18T05:37:43.659Z,5.30
2023-03-18T05:40:14.914Z,5.30
2023-03-18T05:42:55.401Z,5.40
2023-03-18T05:45:25.765Z,5.50
2023-03-18T05:47:55.974Z,5.50
2023-03-18T05:50:31.716Z,5.60
2023-03-18T05:53:01.053Z,5.60
2023-03-18T05:55:30.502Z,5.70
2023-03-18T05:58:00.635Z,5.80
2023-03-18T06:00:30.192Z,5.90
2023-03-18T06:03:01.782Z,6.00
2023-03-18T06:05:31.966Z,6.00
2023-03-18T06:08:02.210Z,6.10
2023-03-18T06:10:31.611Z,6.10
2023-03-18T06:13:00.491Z,6.20
2023-03-18T06:15:29.207Z,6.20
2023-03-18T06:17:59.375Z,6.30
2023-03-18T06:20:28.104Z,6.30
2023-03-18T06:22:56.876Z,6.40
2023-03-18T06:25:26.674Z,6.50
2023-03-18T06:27:55.474Z,6.50
2023-03-18T06:30:24.506Z,6.60
2023-03-18T06:32:53.610Z,6.70
2023-03-18T06:35:26.726Z,6.90
2023-03-18T06:37:56.090Z,7.10
2023-03-18T06:40:26.046Z,7.10
2023-03-18T06:42:54.803Z,7.30
2023-03-18T06:45:23.826Z,7.40
2023-03-18T06:47:52.545Z,7.70
2023-03-18T06:50:24.749Z,7.80
2023-03-18T06:52:54.418Z,8.00
2023-03-18T06:55:23.310Z,8.20
2023-03-18T06:57:52.771Z,8.30
2023-03-18T07:00:23.118Z,8.40
2023-03-18T07:02:52.645Z,8.60
2023-03-18T07:05:23.290Z,8.70
2023-03-18T07:07:52.295Z,8.90
2023-03-18T07:10:23.117Z,9.00
2023-03-18T07:12:52.654Z,9.00
2023-03-18T07:15:22.760Z,9.10
2023-03-18T07:17:54.166Z,9.20
2023-03-18T07:20:25.071Z,9.30
2023-03-18T07:22:56.335Z,9.30
2023-03-18T07:25:25.475Z,9.40
2023-03-18T07:27:54.817Z,9.40
2023-03-18T07:30:23.691Z,9.50
2023-03-18T07:32:52.597Z,9.60
2023-03-18T07:35:21.364Z,9.70
2023-03-18T07:37:52.143Z,9.80
2023-03-18T07:40:21.102Z,10.00
2023-03-18T07:42:51.739Z,10.20
2023-03-18T07:45:20.664Z,10.50
2023-03-18T07:47:52.766Z,10.60
2023-03-18T07:50:22.205Z,10.70
2023-03-18T07:52:52.608Z,10.60
2023-03-18T07:55:21.493Z,10.90
2023-03-18T07:57:50.595Z,11.10
2023-03-18T08:00:21.372Z,11.30
2023-03-18T08:02:50.228Z,11.40
2023-03-18T08:05:20.395Z,11.30
2023-03-18T08:07:49.874Z,11.50
2023-03-18T08:10:20.918Z,11.70
2023-03-18T08:12:53.441Z,12.00
2023-03-18T08:15:23.410Z,12.10
2023-03-18T08:17:52.889Z,12.50
2023-03-18T08:20:21.852Z,12.50
2023-03-18T08:22:50.658Z,12.50
2023-03-18T08:25:22.330Z,12.90
2023-03-18T08:27:52.610Z,12.90
2023-03-18T08:30:21.607Z,12.70
2023-03-18T08:32:50.437Z,12.90
2023-03-18T08:35:21.321Z,13.10
2023-03-18T08:37:51.453Z,13.20
2023-03-18T08:40:22.042Z,13.20
2023-03-18T08:42:50.820Z,13.40
2023-03-18T08:45:20.666Z,13.80
2023-03-18T08:47:50.312Z,13.70
2023-03-18T08:50:19.307Z,13.50
2023-03-18T08:52:48.054Z,13.50
2023-03-18T08:55:17.405Z,13.40
2023-03-18T08:57:47.772Z,13.60
2023-03-18T09:00:17.683Z,13.80
2023-03-18T09:02:46.430Z,13.60
2023-03-18T09:05:15.308Z,13.60
2023-03-18T09:07:44.178Z,13.90
2023-03-18T09:10:14.876Z,14.00
2023-03-18T09:12:43.928Z,14.20
2023-03-18T09:15:16.242Z,14.30
2023-03-18T09:18:00.034Z,14.90
2023-03-18T09:20:34.250Z,15.70
2023-03-18T09:23:03.186Z,16.60
2023-03-18T09:25:32.763Z,16.80
2023-03-18T09:28:02.293Z,16.60
2023-03-18T09:30:34.034Z,16.40
2023-03-18T09:33:03.167Z,16.70
2023-03-18T09:35:32.199Z,16.50
2023-03-18T09:38:01.570Z,16.70
2023-03-18T09:40:32.931Z,16.60
2023-03-18T09:43:16.025Z,16.40
2023-03-18T09:46:05.133Z,17.10
2023-03-18T09:48:46.223Z,17.00
2023-03-18T09:51:28.693Z,17.10
2023-03-18T09:54:00.388Z,17.20
2023-03-18T09:56:35.089Z,16.90
2023-03-18T09:59:07.958Z,17.00
2023-03-18T10:01:41.529Z,17.40
2023-03-18T10:04:18.572Z,18.80
2023-03-18T10:06:49.252Z,19.70
2023-03-18T10:09:26.633Z,20.30
2023-03-18T10:12:01.229Z,19.90
2023-03-18T10:14:43.965Z,19.60
2023-03-18T10:17:20.876Z,19.60
2023-03-18T10:19:53.626Z,20.10
2023-03-18T10:22:49.323Z,20.10
2023-03-18T10:25:24.392Z,20.20
2023-03-18T10:28:06.948Z,21.50
2023-03-18T10:30:51.502Z,21.70
2023-03-18T10:33:31.183Z,22.20
2023-03-18T10:36:08.029Z,22.90
2023-03-18T10:38:39.916Z,22.70
2023-03-18T10:41:18.163Z,22.10
2023-03-18T10:43:50.300Z,21.50
2023-03-18T10:46:22.051Z,20.90
2023-03-18T10:48:55.966Z,19.90
2023-03-18T10:51:34.847Z,19.20
2023-03-18T10:54:10.711Z,19.20
2023-03-18T10:56:39.733Z,19.30
2023-03-18T10:59:18.390Z,19.10
2023-03-18T11:01:50.288Z,19.50
2023-03-18T11:04:24.041Z,19.80
2023-03-18T11:06:57.943Z,20.40
2023-03-18T11:09:33.704Z,20.40
2023-03-18T11:12:07.067Z,21.40
2023-03-18T11:14:38.745Z,22.00
2023-03-18T11:17:22.248Z,21.80
2023-03-18T11:20:02.787Z,22.30
2023-03-18T11:22:33.331Z,22.80
2023-03-18T11:25:15.213Z,23.60
2023-03-18T11:27:46.579Z,24.00
2023-03-18T11:30:32.985Z,24.80
2023-03-18T11:33:08.338Z,24.60
2023-03-18T11:35:45.177Z,24.30
2023-03-18T11:38:21.634Z,24.60
2023-03-18T11:40:50.388Z,24.30
2023-03-18T11:43:21.597Z,24.40
2023-03-18T11:45:58.004Z,24.20
2023-03-18T11:48:39.525Z,24.50
2023-03-18T11:51:48.834Z,24.20
2023-03-18T11:54:48.072Z,23.60
2023-03-18T11:57:21.562Z,23.70
2023-03-18T12:00:17.898Z,23.70
2023-03-18T12:02:59.131Z,24.20
2023-03-18T12:05:53.452Z,24.00
2023-03-18T12:08:35.061Z,23.80
2023-03-18T12:11:13.208Z,24.20
2023-03-18T12:13:54.085Z,23.00
2023-03-18T12:16:36.655Z,23.60
2023-03-18T12:19:25.446Z,23.40
2023-03-18T12:22:16.465Z,24.10
2023-03-18T12:25:05.200Z,24.30
2023-03-18T12:27:43.402Z,24.70
2023-03-18T12:30:48.116Z,24.90
2023-03-18T12:33:34.323Z,24.40
2023-03-18T12:36:12.658Z,24.30
2023-03-18T12:39:06.052Z,23.40
2023-03-18T12:41:44.635Z,22.80
2023-03-18T12:44:39.060Z,22.90
2023-03-18T12:47:12.971Z,23.20
2023-03-18T12:49:47.822Z,23.70
2023-03-18T12:52:27.678Z,23.60
2023-03-18T12:55:02.767Z,23.50
2023-03-18T12:57:40.706Z,23.80
2023-03-18T13:00:20.452Z,24.20
2023-03-18T13:03:00.361Z,24.60
2023-03-18T13:05:38.463Z,24.40
2023-03-18T13:08:36.586Z,23.80
2023-03-18T13:11:12.641Z,22.80
2023-03-18T13:13:49.742Z,21.80
2023-03-18T13:16:20.944Z,21.60
2023-03-18T13:18:52.488Z,21.60
2023-03-18T13:21:24.647Z,22.40
2023-03-18T13:24:25.545Z,23.50
2023-03-18T13:27:14.092Z,23.60
2023-03-18T13:29:53.242Z,23.50
2023-03-18T13:32:40.498Z,23.90
2023-03-18T13:35:35.020Z,23.60
2023-03-18T13:38:26.588Z,23.60
2023-03-18T13:41:32.684Z,24.20
2023-03-18T13:44:06.896Z,24.70
2023-03-18T13:46:37.377Z,25.80
2023-03-18T13:49:06.797Z,25.60
2023-03-18T13:51:52.302Z,25.10
2023-03-18T13:54:22.510Z,24.60
2023-03-18T13:56:56.041Z,24.60
2023-03-18T13:59:47.886Z,24.70
2023-03-18T14:02:43.826Z,24.60
2023-03-18T14:05:42.711Z,24.80
2023-03-18T14:08:37.543Z,25.00
2023-03-18T14:11:50.405Z,25.50
2023-03-18T14:14:53.063Z,25.80
2023-03-18T14:17:28.299Z,25.50
2023-03-18T14:19:58.906Z,25.10
2023-03-18T14:22:37.480Z,25.00
2023-03-18T14:25:20.338Z,24.60
2023-03-18T14:27:52.193Z,23.80
2023-03-18T14:30:47.390Z,23.80
2023-03-18T14:33:41.348Z,23.50
2023-03-18T14:36:12.728Z,23.00
2023-03-18T14:38:48.331Z,23.00
2023-03-18T14:41:29.532Z,23.40
2023-03-18T14:44:23.573Z,23.10
2023-03-18T14:46:58.256Z,23.40
2023-03-18T14:49:44.350Z,23.50
2023-03-18T14:52:29.009Z,24.10
2023-03-18T14:55:00.704Z,24.40
2023-03-18T14:57:30.033Z,24.00
2023-03-18T15:00:00.928Z,23.90
2023-03-18T15:02:34.330Z,23.70
2023-03-18T15:05:03.401Z,23.50
2023-03-18T15:07:37.583Z,22.90
2023-03-18T15:10:11.625Z,22.10
2023-03-18T15:12:41.440Z,21.80
2023-03-18T15:15:16.625Z,20.70
2023-03-18T15:17:49.819Z,20.20
2023-03-18T15:20:19.082Z,19.70
2023-03-18T15:22:50.639Z,19.10
2023-03-18T15:25:21.913Z,19.00
2023-03-18T15:27:52.118Z,18.90
2023-03-18T15:30:28.912Z,18.50
2023-03-18T15:33:06.895Z,18.40
2023-03-18T15:35:37.808Z,18.30
2023-03-18T15:38:16.488Z,18.30
2023-03-18T15:40:51.302Z,18.10
2023-03-18T15:43:31.620Z,18.00
2023-03-18T15:46:02.962Z,17.90
2023-03-18T15:48:36.828Z,17.70
2023-03-18T15:51:08.736Z,17.50
2023-03-18T15:53:48.115Z,17.30
2023-03-18T15:56:19.970Z,17.10
2023-03-18T15:58:59.208Z,17.20
2023-03-18T16:01:28.937Z,17.00
2023-03-18T16:03:58.097Z,16.80
2023-03-18T16:06:27.149Z,16.40
2023-03-18T16:08:57.466Z,16.40
2023-03-18T16:11:26.507Z,16.30
2023-03-18T16:13:55.789Z,16.20
2023-03-18T16:16:29.682Z,16.10
2023-03-18T16:18:59.909Z,16.10
2023-03-18T16:21:29.033Z,15.90
2023-03-18T16:23:59.380Z,15.70
2023-03-18T16:26:28.496Z,15.60
2023-03-18T16:28:57.292Z,15.50
2023-03-18T16:31:26.478Z,15.30
2023-03-18T16:33:56.545Z,15.20
2023-03-18T16:36:35.204Z,15.10
2023-03-18T16:39:16.822Z,15.00
2023-03-18T16:41:46.728Z,14.80
2023-03-18T16:44:17.892Z,14.70
2023-03-18T16:46:49.867Z,14.60
2023-03-18T16:49:23.236Z,14.50
2023-03-18T16:51:52.365Z,14.40
2023-03-18T16:54:24.188Z,14.50
2023-03-18T16:56:56.195Z,14.50
2023-03-18T16:59:25.931Z,14.40
2023-03-18T17:01:55.276Z,14.30
2023-03-18T17:04:28.727Z,14.20
2023-03-18T17:06:59.196Z,14.20
2023-03-18T17:09:30.348Z,14.10
2023-03-18T17:12:03.305Z,14.00
2023-03-18T17:14:35.456Z,14.00
2023-03-18T17:17:07.361Z,13.90
2023-03-18T17:19:37.180Z,14.00
2023-03-18T17:22:16.286Z,13.90
2023-03-18T17:24:47.564Z,13.80
2023-03-18T17:27:20.121Z,13.80
2023-03-18T17:29:49.304Z,13.80
2023-03-18T17:32:20.401Z,13.70
2023-03-18T17:34:52.031Z,13.70
2023-03-18T17:37:24.191Z,13.70
2023-03-18T17:39:54.693Z,13.70
2023-03-18T17:42:31.605Z,13.60
2023-03-18T17:45:05.785Z,13.60
2023-03-18T17:47:38.045Z,13.70
2023-03-18T17:50:09.413Z,13.70
2023-03-18T17:52:39.540Z,13.60
2023-03-18T17:55:18.897Z,13.50
2023-03-18T17:57:49.894Z,13.40
2023-03-18T18:00:23.710Z,13.30
2023-03-18T18:02:55.107Z,13.40
2023-03-18T18:05:25.888Z,13.20
2023-03-18T18:07:56.560Z,13.20
2023-03-18T18:10:27.444Z,13.10
2023-03-18T18:12:56.739Z,13.10
2023-03-18T18:15:28.113Z,13.00
2023-03-18T18:17:58.405Z,13.10
2023-03-18T18:20:28.212Z,13.00
2023-03-18T18:22:59.330Z,13.00
2023-03-18T18:25:33.065Z,13.00
2023-03-18T18:28:02.775Z,13.00
2023-03-18T18:30:33.034Z,12.90
2023-03-18T18:33:03.411Z,13.00
2023-03-18T18:35:35.558Z,12.90
2023-03-18T18:38:05.017Z,12.80
2023-03-18T18:40:36.395Z,12.70
2023-03-18T18:43:06.889Z,12.50
2023-03-18T18:45:38.479Z,12.40
2023-03-18T18:48:16.218Z,12.30
2023-03-18T18:50:47.092Z,12.10
2023-03-18T18:53:24.986Z,12.00
2023-03-18T18:56:00.907Z,11.90
2023-03-18T18:58:33.474Z,11.90
2023-03-18T19:01:05.978Z,11.80
2023-03-18T19:03:38.260Z,11.80
2023-03-18T19:06:16.676Z,11.80
2023-03-18T19:08:48.889Z,11.80
2023-03-18T19:11:25.567Z,11.70
2023-03-18T19:13:56.647Z,11.70
2023-03-18T19:16:33.902Z,11.60
2023-03-18T19:19:04.839Z,11.50
2023-03-18T19:21:35.342Z,11.50
2023-03-18T19:24:12.059Z,11.50
2023-03-18T19:26:44.340Z,11.30
2023-03-18T19:29:14.731Z,11.20
2023-03-18T19:31:45.614Z,11.20
2023-03-18T19:34:19.420Z,11.20
2023-03-18T19:36:53.512Z,11.10
2023-03-18T19:39:25.696Z,11.00
2023-03-18T19:41:58.561Z,10.90
2023-03-18T19:44:32.209Z,10.90
2023-03-18T19:47:06.426Z,10.80
2023-03-18T19:49:41.331Z,10.70
2023-03-18T19:52:20.828Z,10.80
2023-03-18T19:54:52.121Z,10.80
2023-03-18T19:57:28.449Z,10.80
2023-03-18T20:00:01.054Z,10.80
2023-03-18T20:02:32.984Z,10.70
2023-03-18T20:05:05.438Z,10.60
2023-03-18T20:07:35.686Z,10.60
2023-03-18T20:10:12.509Z,10.50
2023-03-18T20:12:55.460Z,10.50
2023-03-18T20:15:31.641Z,10.50
2023-03-18T20:18:03.537Z,10.40
2023-03-18T20:20:35.524Z,10.30
2023-03-18T20:23:07.823Z,10.40
2023-03-18T20:25:42.029Z,10.40
2023-03-18T20:28:21.468Z,10.50
2023-03-18T20:30:57.147Z,10.50
2023-03-18T20:33:33.352Z,10.40
2023-03-18T20:36:05.324Z,10.40
2023-03-18T20:38:49.366Z,10.30
2023-03-18T20:41:30.067Z,10.30
2023-03-18T20:44:04.911Z,10.20
2023-03-18T20:46:47.111Z,10.20
2023-03-18T20:49:18.945Z,10.10
2023-03-18T20:51:51.613Z,10.10
2023-03-18T20:54:28.410Z,10.10
2023-03-18T20:57:01.650Z,10.10
2023-03-18T20:59:35.259Z,10.10
2023-03-18T21:02:08.368Z,10.10
2023-03-18T21:04:38.542Z,10.00
2023-03-18T21:07:12.378Z,9.90
2023-03-18T21:09:45.488Z,9.80
2023-03-18T21:12:19.097Z,9.70
2023-03-18T21:14:51.377Z,9.70
2023-03-18T21:17:23.152Z,9.60
2023-03-18T21:20:21.447Z,9.60
2023-03-18T21:22:53.894Z,9.50
2023-03-18T21:25:29.980Z,9.40
2023-03-18T21:28:00.585Z,9.40
2023-03-18T21:30:39.249Z,9.40
2023-03-18T21:33:21.603Z,9.40
2023-03-18T21:35:52.844Z,9.40
2023-03-18T21:38:21.928Z,9.30
2023-03-18T21:40:52.363Z,9.20
2023-03-18T21:43:33.036Z,9.20
2023-03-18T21:46:04.772Z,9.10
2023-03-18T21:48:34.613Z,9.10
2023-03-18T21:51:03.714Z,9.10
2023-03-18T21:53:32.742Z,9.20
2023-03-18T21:56:01.793Z,9.10
2023-03-18T21:58:30.897Z,9.10
2023-03-18T22:01:01.646Z,9.10
2023-03-18T22:03:32.253Z,9.20
2023-03-18T22:06:01.261Z,9.10
2023-03-18T22:08:30.182Z,9.10
2023-03-18T22:10:59.588Z,9.10
2023-03-18T22:13:29.143Z,9.20
2023-03-18T22:15:58.494Z,9.10
2023-03-18T22:18:27.338Z,9.10
2023-03-18T22:20:58.722Z,9.00
2023-03-18T22:23:30.158Z,8.90
2023-03-18T22:25:59.738Z,8.90
2023-03-18T22:28:29.374Z,8.80
2023-03-18T22:30:58.245Z,8.70
2023-03-18T22:33:30.035Z,8.70
2023-03-18T22:36:00.578Z,8.70
2023-03-18T22:38:30.222Z,8.70
2023-03-18T22:40:59.542Z,8.70
2023-03-18T22:43:31.910Z,8.60
2023-03-18T22:46:01.861Z,8.50
2023-03-18T22:48:30.701Z,8.50
2023-03-18T22:51:01.756Z,8.50
2023-03-18T22:53:33.035Z,8.50
2023-03-18T22:56:08.406Z,8.40
2023-03-18T22:58:37.273Z,8.30
2023-03-18T23:01:08.182Z,8.30
2023-03-18T23:03:40.627Z,8.30
2023-03-18T23:06:16.421Z,8.20
2023-03-18T23:08:46.563Z,8.10
2023-03-18T23:11:15.935Z,8.10
2023-03-18T23:13:46.467Z,8.00
2023-03-18T23:16:17.040Z,7.90
2023-03-18T23:18:45.868Z,7.80
2023-03-18T23:21:19.305Z,7.80
2023-03-18T23:23:48.170Z,7.60
2023-03-18T23:26:17.146Z,7.50
2023-03-18T23:28:46.099Z,7.50
2023-03-18T23:31:15.275Z,7.50
2023-03-18T23:33:44.621Z,7.60
2023-03-18T23:36:13.447Z,7.70
2023-03-18T23:38:43.684Z,7.50
2023-03-18T23:41:12.620Z,7.50
2023-03-18T23:43:41.374Z,7.40
2023-03-18T23:46:10.200Z,7.40
2023-03-18T23:48:39.087Z,7.40
2023-03-18T23:51:07.998Z,7.40
2023-03-18T23:53:36.765Z,7.50
2023-03-18T23:56:07.574Z,7.60
2023-03-18T23:58:36.360Z,7.60
